Time;durP1;ratioP1;P1;durP2;ratioP2;P2;SDS_P1;SDS_P2;PMS_P1;PMS_P2;Temp;Humidity;BMP_temperature;BMP_pressure;BME280_temperature;BME280_humidity;BME280_pressure;Samples;Min_cycle;Max_cycle;Signal;HPM_P1;HPM_P2
2022/06/26 00:00:33;;;;;;;14.35;11.90;;;;;;;17.80;100.00;101022.16;5030467;28;20112;-70
2022/06/26 00:02:59;;;;;;;14.00;11.38;;;;;;;17.79;100.00;101020.53;5053982;28;20090;-70
2022/06/26 00:05:24;;;;;;;13.13;11.70;;;;;;;17.77;100.00;101017.25;5053011;28;20040;-72
2022/06/26 00:07:49;;;;;;;13.05;11.57;;;;;;;17.73;100.00;101003.28;5054032;28;20025;-72
2022/06/26 00:10:15;;;;;;;15.02;11.40;;;;;;;17.71;100.00;101011.75;5037203;28;20041;-70
2022/06/26 00:12:41;;;;;;;12.98;11.45;;;;;;;17.69;100.00;101015.84;5037202;28;20042;-72
2022/06/26 00:15:07;;;;;;;14.57;11.23;;;;;;;17.71;100.00;101024.63;5047376;28;20025;-72
2022/06/26 00:17:32;;;;;;;14.38;11.35;;;;;;;17.68;100.00;101025.16;5049306;28;20033;-70
2022/06/26 00:19:57;;;;;;;14.88;10.60;;;;;;;17.67;100.00;101026.25;5052296;28;20056;-71
2022/06/26 00:22:23;;;;;;;13.93;10.75;;;;;;;17.69;100.00;101026.78;5048533;28;20052;-70
2022/06/26 00:24:48;;;;;;;10.82;9.73;;;;;;;17.69;100.00;101029.53;5044912;28;20044;-73
2022/06/26 00:27:13;;;;;;;14.98;10.15;;;;;;;17.70;100.00;101031.19;5053149;28;20025;-70
2022/06/26 00:29:38;;;;;;;12.82;10.38;;;;;;;17.66;100.00;101030.91;5036932;28;20026;-72
2022/06/26 00:32:05;;;;;;;11.15;9.82;;;;;;;17.62;100.00;101034.44;5053336;28;20411;-72
2022/06/26 00:34:30;;;;;;;13.00;10.82;;;;;;;17.56;100.00;101030.88;5046958;28;20044;-71
2022/06/26 00:36:56;;;;;;;16.13;10.13;;;;;;;17.56;100.00;101038.22;5037664;28;20029;-70
2022/06/26 00:39:21;;;;;;;13.55;10.23;;;;;;;17.51;100.00;101056.28;5038706;28;20491;-72
2022/06/26 00:41:47;;;;;;;11.65;10.43;;;;;;;17.47;100.00;101060.66;5050682;28;20046;-72
2022/06/26 00:44:18;;;;;;;13.70;11.07;;;;;;;17.41;100.00;101056.25;5037054;28;20037;-71
2022/06/26 00:46:44;;;;;;;14.07;10.88;;;;;;;17.36;100.00;101065.25;5041302;28;20052;-71
2022/06/26 00:49:10;;;;;;;13.05;11.57;;;;;;;17.34;100.00;101059.19;5051771;28;20033;-70
2022/06/26 00:51:38;;;;;;;13.07;11.63;;;;;;;17.30;100.00;101063.56;5053171;28;20060;-71
2022/06/26 00:54:05;;;;;;;13.15;11.80;;;;;;;17.25;100.00;101063.53;5042118;28;20032;-70
2022/06/26 00:56:30;;;;;;;13.48;12.07;;;;;;;17.23;100.00;101075.84;5033507;28;20112;-70
2022/06/26 00:58:56;;;;;;;16.20;12.02;;;;;;;17.13;100.00;101063.72;5035483;28;20582;-71
2022/06/26 01:01:21;;;;;;;13.48;11.80;;;;;;;17.15;100.00;101064.31;5050572;28;20031;-72
2022/06/26 01:03:46;;;;;;;15.65;12.63;;;;;;;17.08;100.00;101069.16;5036715;28;20048;-71
2022/06/26 01:06:12;;;;;;;17.50;13.32;;;;;;;17.02;100.00;101072.97;5052690;28;20029;-71
2022/06/26 01:08:37;;;;;;;16.30;12.50;;;;;;;17.00;100.00;101066.94;5051801;28;20036;-71
2022/06/26 01:11:17;;;;;;;15.77;12.90;;;;;;;17.03;100.00;101071.03;5052409;28;20033;-71
2022/06/26 01:13:50;;;;;;;14.82;13.38;;;;;;;16.98;100.00;101075.41;5040406;28;20480;-70
2022/06/26 01:16:18;;;;;;;18.17;14.07;;;;;;;16.97;100.00;101079.22;5032328;28;20057;-72
2022/06/26 01:18:45;;;;;;;16.27;13.82;;;;;;;16.96;100.00;101087.69;5047668;28;20029;-72
2022/06/26 01:21:10;;;;;;;15.60;13.85;;;;;;;16.95;100.00;101091.50;5052478;28;20140;-72
2022/06/26 01:23:36;;;;;;;15.45;13.77;;;;;;;16.92;100.00;101086.56;5051519;28;20119;-72
2022/06/26 01:26:01;;;;;;;15.48;13.88;;;;;;;16.88;100.00;101077.22;5052715;28;20029;-71
2022/06/26 01:28:27;;;;;;;15.30;13.70;;;;;;;16.84;100.00;101085.91;5038781;28;20040;-71
2022/06/26 01:30:52;;;;;;;16.38;14.68;;;;;;;16.77;100.00;101079.88;5032074;28;20060;-72
2022/06/26 01:33:17;;;;;;;16.85;15.05;;;;;;;16.76;100.00;101086.41;5030650;28;20032;-71
2022/06/26 01:35:43;;;;;;;17.25;15.50;;;;;;;16.73;100.00;101088.84;5032399;28;20116;-70
2022/06/26 01:38:13;;;;;;;20.42;16.23;;;;;;;16.70;100.00;101089.34;5031854;28;20021;-71
2022/06/26 01:40:41;;;;;;;18.17;16.02;;;;;;;16.65;100.00;101087.38;5051084;28;20061;-70
2022/06/26 01:43:07;;;;;;;17.90;15.98;;;;;;;16.65;100.00;101092.84;5051986;28;20494;-70
2022/06/26 01:45:33;;;;;;;18.38;16.40;;;;;;;16.64;100.00;101086.56;5047914;28;20037;-71
2022/06/26 01:47:58;;;;;;;18.73;16.73;;;;;;;16.62;100.00;101091.47;5051377;28;20376;-71
2022/06/26 01:50:24;;;;;;;19.70;17.60;;;;;;;16.62;100.00;101090.63;5046264;28;20144;-72
2022/06/26 01:52:49;;;;;;;19.08;17.08;;;;;;;16.59;100.00;101092.00;5031969;28;20038;-72
2022/06/26 01:55:14;;;;;;;19.92;17.70;;;;;;;16.57;100.00;101087.88;5035452;28;20026;-70
2022/06/26 01:57:39;;;;;;;19.98;17.75;;;;;;;16.54;100.00;101080.19;5031037;28;20034;-70
2022/06/26 02:00:06;;;;;;;20.60;18.48;;;;;;;16.48;100.00;101077.41;5046501;28;20041;-72
2022/06/26 02:02:33;;;;;;;21.73;18.13;;;;;;;16.47;100.00;101083.13;5028863;28;20075;-72
2022/06/26 02:04:59;;;;;;;20.33;18.13;;;;;;;16.44;100.00;101072.72;5030981;28;20037;-72
2022/06/26 02:07:25;;;;;;;20.73;17.92;;;;;;;16.45;100.00;101067.00;5046521;28;20063;-70
2022/06/26 02:15:18;;;;;;;20.42;17.58;;;;;;;16.47;100.00;101055.81;5051845;28;20040;-70
2022/06/26 02:17:43;;;;;;;21.27;17.48;;;;;;;16.48;100.00;101054.75;5051078;28;20029;-71
2022/06/26 02:20:09;;;;;;;22.83;18.27;;;;;;;16.47;100.00;101053.06;5051962;28;20452;-72
2022/06/26 02:22:34;;;;;;;19.60;17.48;;;;;;;16.48;100.00;101050.09;5051986;28;20040;-72
2022/06/26 02:25:00;;;;;;;20.23;17.80;;;;;;;16.51;100.00;101054.22;5038924;28;20412;-72
2022/06/26 02:27:27;;;;;;;21.77;18.15;;;;;;;16.46;100.00;101062.38;5046860;28;20029;-69
2022/06/26 02:30:00;;;;;;;19.73;16.85;;;;;;;16.45;100.00;101064.25;5044489;28;20518;-72
2022/06/26 02:32:35;;;;;;;21.65;17.15;;;;;;;16.33;100.00;101060.88;5030213;28;20022;-70
2022/06/26 02:35:11;;;;;;;21.70;16.77;;;;;;;16.29;100.00;101079.69;5032976;28;20030;-70
2022/06/26 02:37:47;;;;;;;20.48;14.35;;;;;;;16.24;100.00;101073.34;5030616;28;20065;-72
2022/06/26 02:40:21;;;;;;;20.42;14.23;;;;;;;16.09;100.00;101072.13;5034259;28;20025;-72
2022/06/26 02:42:57;;;;;;;18.20;14.15;;;;;;;15.97;100.00;101081.53;5029711;28;20182;-70
2022/06/26 02:45:32;;;;;;;18.42;13.27;;;;;;;15.94;100.00;101088.31;5047175;28;20037;-70
2022/06/26 02:48:09;;;;;;;19.25;12.80;;;;;;;15.87;100.00;101082.25;5030472;28;20017;-72
2022/06/26 02:50:48;;;;;;;17.90;13.38;;;;;;;15.84;100.00;101094.47;5050802;28;20515;-70
2022/06/26 02:53:25;;;;;;;19.48;13.27;;;;;;;15.83;100.00;101103.75;5035106;28;20030;-72
2022/06/26 02:56:01;;;;;;;19.08;13.30;;;;;;;15.81;100.00;101094.19;5054085;28;20039;-72
2022/06/26 02:58:35;;;;;;;17.15;12.65;;;;;;;15.78;100.00;101100.97;5052149;28;20125;-71
2022/06/26 03:01:12;;;;;;;18.30;12.93;;;;;;;15.79;100.00;101101.78;5050481;28;20094;-69
2022/06/26 03:03:45;;;;;;;16.35;13.15;;;;;;;15.77;100.00;101104.72;5043666;28;20117;-71
2022/06/26 03:06:20;;;;;;;19.40;13.55;;;;;;;15.77;100.00;101102.84;5050213;28;20487;-70
2022/06/26 03:08:56;;;;;;;18.98;13.25;;;;;;;15.76;100.00;101105.78;5049493;28;20022;-69
2022/06/26 03:11:31;;;;;;;16.75;12.32;;;;;;;15.80;100.00;101100.72;5033019;28;20099;-72
2022/06/26 03:14:07;;;;;;;18.73;12.18;;;;;;;15.77;100.00;101111.03;5033099;28;20033;-69
2022/06/26 03:16:42;;;;;;;16.42;12.25;;;;;;;15.70;100.00;101112.28;5050055;28;20025;-71
2022/06/26 03:19:14;;;;;;;18.63;13.13;;;;;;;15.66;100.00;101111.97;5048904;28;20032;-69
2022/06/26 03:21:43;;;;;;;16.60;11.95;;;;;;;15.64;100.00;101125.03;5033577;28;20037;-71
2022/06/26 03:24:14;;;;;;;18.42;12.25;;;;;;;15.62;100.00;101138.09;5033018;28;20036;-72
2022/06/26 03:26:49;;;;;;;16.98;12.90;;;;;;;15.59;100.00;101136.72;5033522;28;20025;-69
2022/06/26 03:29:24;;;;;;;14.65;11.95;;;;;;;15.59;100.00;101124.94;5032680;28;20450;-70
2022/06/26 03:31:58;;;;;;;16.02;11.18;;;;;;;15.52;100.00;101124.28;5033407;28;20026;-71
2022/06/26 03:34:30;;;;;;;17.42;11.77;;;;;;;15.53;100.00;101128.69;5036590;28;20365;-69
2022/06/26 03:37:00;;;;;;;17.92;11.57;;;;;;;15.52;100.00;101138.78;5053233;28;20559;-71
2022/06/26 03:39:27;;;;;;;17.58;11.23;;;;;;;15.55;100.00;101145.63;5051806;28;20492;-72
2022/06/26 03:42:00;;;;;;;18.00;11.00;;;;;;;15.53;100.00;101147.78;5052887;28;20045;-72
2022/06/26 03:44:28;;;;;;;17.02;10.75;;;;;;;15.49;100.00;101158.38;5046559;28;20510;-71
2022/06/26 03:46:55;;;;;;;18.60;11.20;;;;;;;15.44;100.00;101165.66;5032559;28;20056;-72
2022/06/26 03:49:21;;;;;;;16.95;10.95;;;;;;;15.44;100.00;101163.75;5032606;28;20033;-72
2022/06/26 03:51:46;;;;;;;18.55;11.10;;;;;;;15.37;100.00;101155.75;5033591;28;20028;-72
2022/06/26 03:54:11;;;;;;;14.65;10.13;;;;;;;15.40;100.00;101159.88;5053973;28;20108;-71
2022/06/26 03:56:38;;;;;;;16.85;10.27;;;;;;;15.36;100.00;101170.44;5051764;28;20021;-70
2022/06/26 03:59:03;;;;;;;15.88;10.32;;;;;;;15.31;100.00;101166.81;5032981;28;20036;-72
2022/06/26 04:01:29;;;;;;;12.30;9.27;;;;;;;15.30;100.00;101155.09;5031428;28;20029;-71
2022/06/26 04:03:54;;;;;;;15.55;9.57;;;;;;;15.28;100.00;101151.78;5036538;28;20029;-72
2022/06/26 04:06:19;;;;;;;15.05;9.90;;;;;;;15.36;100.00;101147.81;5033449;28;20488;-72
2022/06/26 04:08:45;;;;;;;12.95;8.40;;;;;;;15.36;100.00;101145.91;5035390;28;20033;-72
2022/06/26 04:11:10;;;;;;;15.45;9.15;;;;;;;15.36;100.00;101159.53;5032268;28;20105;-70
2022/06/26 04:13:35;;;;;;;13.38;8.90;;;;;;;15.36;100.00;101139.63;5046265;28;20033;-72
2022/06/26 04:16:01;;;;;;;13.38;8.63;;;;;;;15.36;100.00;101154.09;5032703;28;20025;-69
2022/06/26 04:18:26;;;;;;;13.13;8.50;;;;;;;15.36;100.00;101154.09;5033306;28;20099;-72
2022/06/26 04:20:51;;;;;;;14.13;8.73;;;;;;;15.38;100.00;101162.84;5033800;28;20067;-72
2022/06/26 04:23:17;;;;;;;13.18;8.48;;;;;;;15.34;100.00;101161.69;5032540;28;20480;-72
2022/06/26 04:25:42;;;;;;;12.73;8.63;;;;;;;15.37;100.00;101166.66;5033018;28;20033;-72
2022/06/26 04:28:08;;;;;;;14.40;8.38;;;;;;;15.42;100.00;101174.09;5037466;28;20403;-72
2022/06/26 04:30:34;;;;;;;10.85;8.07;;;;;;;15.43;100.00;101175.75;5052123;28;20037;-70
2022/06/26 04:32:59;;;;;;;14.02;8.68;;;;;;;15.44;100.00;101184.75;5048620;28;20037;-72
2022/06/26 04:35:24;;;;;;;14.20;9.10;;;;;;;15.48;100.00;101194.09;5033035;28;20457;-70
2022/06/26 04:37:50;;;;;;;12.95;8.30;;;;;;;15.51;100.00;101193.59;5039260;28;20044;-71
2022/06/26 04:40:16;;;;;;;14.48;8.52;;;;;;;15.56;100.00;101204.56;5033862;28;20124;-72
2022/06/26 04:42:42;;;;;;;17.83;8.85;;;;;;;15.49;100.00;101203.91;5045332;28;20095;-71
2022/06/26 04:45:09;;;;;;;14.32;8.18;;;;;;;15.50;100.00;101211.00;5050762;28;20037;-70
2022/06/26 04:47:35;;;;;;;16.13;8.43;;;;;;;15.48;100.00;101210.44;5051801;28;20456;-72
2022/06/26 04:50:00;;;;;;;13.50;8.55;;;;;;;15.46;100.00;101218.88;5036847;28;20033;-70
2022/06/26 04:52:26;;;;;;;18.13;8.93;;;;;;;15.50;100.00;101224.66;5048335;28;20037;-69
2022/06/26 04:54:51;;;;;;;12.35;8.68;;;;;;;15.54;100.00;101226.63;5032591;28;20042;-70
2022/06/26 04:57:17;;;;;;;15.32;8.90;;;;;;;15.52;100.00;101222.50;5032947;28;20033;-70
2022/06/26 04:59:43;;;;;;;14.23;8.75;;;;;;;15.49;100.00;101212.06;5047762;28;20456;-72
2022/06/26 05:02:09;;;;;;;14.52;8.77;;;;;;;15.50;100.00;101217.28;5030707;28;20079;-74
2022/06/26 05:04:35;;;;;;;13.80;9.07;;;;;;;15.52;100.00;101217.03;5047786;28;20030;-72
2022/06/26 05:07:00;;;;;;;17.55;9.20;;;;;;;15.55;100.00;101232.91;5044616;28;20498;-74
2022/06/26 05:09:26;;;;;;;15.40;8.88;;;;;;;15.57;100.00;101219.84;5031908;28;20037;-73
2022/06/26 05:11:51;;;;;;;13.63;9.10;;;;;;;15.64;100.00;101223.25;5031074;28;20079;-72
2022/06/26 05:14:17;;;;;;;15.57;8.88;;;;;;;15.60;100.00;101222.91;5032715;28;20484;-74
2022/06/26 05:16:43;;;;;;;17.88;9.27;;;;;;;15.56;100.00;101224.47;5031080;28;20037;-70
2022/06/26 05:19:08;;;;;;;17.10;9.05;;;;;;;15.59;100.00;101217.69;5031633;28;20132;-74
2022/06/26 05:21:34;;;;;;;18.08;9.40;;;;;;;15.58;100.00;101225.06;5031966;28;20040;-70
2022/06/26 05:23:59;;;;;;;17.00;9.40;;;;;;;15.56;100.00;101224.47;5032517;28;20057;-72
2022/06/26 05:26:25;;;;;;;20.73;10.23;;;;;;;15.55;100.00;101222.84;5031202;28;20440;-70
2022/06/26 05:28:50;;;;;;;16.75;9.80;;;;;;;15.56;100.00;101223.66;5041281;28;20032;-71
2022/06/26 05:31:16;;;;;;;17.98;9.15;;;;;;;15.64;100.00;101227.84;5043556;28;20095;-70
2022/06/26 05:33:42;;;;;;;16.77;9.25;;;;;;;15.68;100.00;101221.66;5030770;28;20033;-75
2022/06/26 05:36:07;;;;;;;17.17;9.20;;;;;;;15.72;100.00;101217.34;5032794;28;20025;-70
2022/06/26 05:38:34;;;;;;;14.90;8.48;;;;;;;15.76;100.00;101223.97;5044754;28;20103;-73
2022/06/26 05:40:59;;;;;;;15.00;8.18;;;;;;;15.80;100.00;101228.94;5038402;28;20053;-72
2022/06/26 05:43:25;;;;;;;16.85;9.15;;;;;;;15.77;100.00;101231.09;5044883;28;20028;-71
2022/06/26 05:45:50;;;;;;;18.20;9.10;;;;;;;15.76;100.00;101244.94;5051505;28;20036;-75
2022/06/26 05:48:15;;;;;;;17.83;9.23;;;;;;;15.77;100.00;101244.72;5052506;28;20036;-69
2022/06/26 05:50:41;;;;;;;19.30;8.88;;;;;;;15.76;100.00;101259.44;5039226;28;20037;-73
2022/06/26 05:53:06;;;;;;;16.58;8.95;;;;;;;15.80;100.00;101257.06;5031131;28;20040;-72
2022/06/26 05:55:33;;;;;;;17.80;8.98;;;;;;;15.75;100.00;101260.50;5032856;28;20048;-72
2022/06/26 05:57:59;;;;;;;18.80;9.25;;;;;;;15.78;100.00;101270.13;5052232;28;20041;-74
2022/06/26 06:00:24;;;;;;;17.77;9.65;;;;;;;15.83;100.00;101262.00;5050372;28;20384;-71
2022/06/26 06:02:50;;;;;;;14.93;8.40;;;;;;;15.83;100.00;101263.94;5029451;28;20121;-73
2022/06/26 06:05:16;;;;;;;16.30;8.38;;;;;;;15.92;100.00;101265.16;5030774;28;20396;-74
2022/06/26 06:07:43;;;;;;;14.68;8.07;;;;;;;15.95;100.00;101278.28;5030243;28;20116;-72
2022/06/26 06:10:14;;;;;;;14.43;8.30;;;;;;;16.01;100.00;101274.56;5030485;28;20365;-73
2022/06/26 06:12:42;;;;;;;14.88;8.27;;;;;;;16.10;100.00;101273.03;5040682;28;20075;-73
2022/06/26 06:15:15;;;;;;;16.35;8.32;;;;;;;16.16;100.00;101265.75;5032290;28;20029;-73
2022/06/26 06:17:47;;;;;;;17.27;8.18;;;;;;;16.20;100.00;101266.06;5043542;28;20488;-74
2022/06/26 06:20:26;;;;;;;17.45;8.35;;;;;;;16.24;100.00;101267.22;5030873;28;20035;-71
2022/06/26 06:23:01;;;;;;;14.77;7.97;;;;;;;16.28;100.00;101257.44;5044677;28;20021;-71
2022/06/26 06:25:27;;;;;;;15.38;7.80;;;;;;;16.34;100.00;101267.38;5054411;28;20392;-71
2022/06/26 06:27:52;;;;;;;14.65;7.07;;;;;;;16.36;100.00;101267.94;5053669;28;20017;-72
2022/06/26 06:30:18;;;;;;;14.20;7.15;;;;;;;16.41;100.00;101272.63;5054382;28;20109;-74
2022/06/26 06:32:45;;;;;;;13.88;7.72;;;;;;;16.44;100.00;101272.97;5055534;28;20066;-72
2022/06/26 06:35:13;;;;;;;15.98;6.78;;;;;;;16.43;100.00;101284.97;5046925;28;20029;-73
2022/06/26 06:37:39;;;;;;;11.55;6.80;;;;;;;16.42;100.00;101290.69;5035669;28;20029;-75
2022/06/26 06:40:04;;;;;;;13.07;7.13;;;;;;;16.48;100.00;101295.94;5036685;28;20365;-71
2022/06/26 06:42:30;;;;;;;12.50;6.90;;;;;;;16.55;100.00;101287.56;5042851;28;20041;-71
2022/06/26 06:44:55;;;;;;;11.35;6.80;;;;;;;16.55;100.00;101297.69;5047246;28;20037;-73
2022/06/26 06:47:20;;;;;;;12.00;7.10;;;;;;;16.53;100.00;101297.09;5034854;28;20159;-73
2022/06/26 06:49:46;;;;;;;14.52;6.90;;;;;;;16.52;100.00;101317.31;5035526;28;20072;-74
2022/06/26 06:52:11;;;;;;;11.35;6.30;;;;;;;16.47;100.00;101318.88;5034954;28;20080;-75
2022/06/26 06:54:37;;;;;;;9.60;6.68;;;;;;;16.42;100.00;101335.19;5035381;28;20121;-73
2022/06/26 06:57:02;;;;;;;13.07;6.82;;;;;;;16.43;100.00;101345.03;5041486;28;20087;-70
2022/06/26 06:59:28;;;;;;;11.35;6.97;;;;;;;16.42;100.00;101345.31;5044932;28;20037;-75
2022/06/26 07:01:53;;;;;;;11.25;6.22;;;;;;;16.45;100.00;101353.00;5042041;28;20025;-70
2022/06/26 07:04:19;;;;;;;12.40;6.45;;;;;;;16.48;100.00;101358.75;5050909;28;20039;-73
2022/06/26 07:06:45;;;;;;;13.70;6.68;;;;;;;16.54;100.00;101358.84;5054460;28;20025;-74
2022/06/26 07:09:11;;;;;;;14.82;6.85;;;;;;;16.64;100.00;101364.47;5042367;28;20043;-73
2022/06/26 07:11:36;;;;;;;10.13;6.50;;;;;;;16.72;100.00;101361.28;5041496;28;20041;-75
2022/06/26 07:14:02;;;;;;;12.90;6.72;;;;;;;16.75;100.00;101368.97;5033975;28;20029;-71
2022/06/26 07:16:29;;;;;;;9.52;6.47;;;;;;;16.70;100.00;101374.38;5035944;28;20033;-73
2022/06/26 07:18:55;;;;;;;11.32;6.10;;;;;;;16.70;100.00;101368.06;5041099;28;20029;-75
2022/06/26 07:21:20;;;;;;;11.35;6.10;;;;;;;16.73;100.00;101373.06;5035317;28;20038;-73
2022/06/26 07:23:45;;;;;;;9.95;5.93;;;;;;;16.74;100.00;101359.13;5034654;28;20041;-75
2022/06/26 07:26:11;;;;;;;10.88;6.72;;;;;;;16.74;100.00;101352.81;5037176;28;20071;-75
2022/06/26 07:28:36;;;;;;;9.45;5.85;;;;;;;16.78;100.00;101364.91;5053374;28;20040;-77
2022/06/26 07:31:02;;;;;;;11.73;6.20;;;;;;;16.78;100.00;101365.72;5045071;28;20092;-81
2022/06/26 07:36:12;;;;;;;9.27;6.15;;;;;;;16.71;100.00;101384.19;5034101;28;20148;-75
2022/06/26 07:38:37;;;;;;;8.48;5.50;;;;;;;16.69;100.00;101383.63;5041123;28;20108;-75
2022/06/26 07:41:02;;;;;;;9.05;5.72;;;;;;;16.69;100.00;101371.91;5063911;28;20171;-73
2022/06/26 07:43:28;;;;;;;8.63;5.35;;;;;;;16.72;100.00;101376.84;5056637;28;20025;-72
2022/06/26 07:45:53;;;;;;;7.45;5.65;;;;;;;16.74;100.00;101383.72;5033592;28;20032;-75
2022/06/26 07:48:19;;;;;;;8.05;4.88;;;;;;;16.73;100.00;101373.06;5034460;28;20033;-73
2022/06/26 07:50:44;;;;;;;9.45;4.90;;;;;;;16.75;100.00;101377.16;5033493;28;20075;-74
2022/06/26 07:53:10;;;;;;;8.50;5.30;;;;;;;16.76;100.00;101378.81;5042430;28;20036;-76
2022/06/26 07:55:35;;;;;;;6.45;5.00;;;;;;;16.75;100.00;101376.34;5041716;28;20112;-75
2022/06/26 07:58:00;;;;;;;7.70;5.30;;;;;;;16.72;100.00;101380.41;5042575;28;20025;-72
2022/06/26 08:00:26;;;;;;;8.38;5.22;;;;;;;16.72;100.00;101383.13;5032061;28;20026;-71
2022/06/26 08:02:51;;;;;;;7.88;5.00;;;;;;;16.74;100.00;101389.19;5045338;28;20029;-72
2022/06/26 08:05:17;;;;;;;9.32;5.28;;;;;;;16.79;100.00;101394.72;5053758;28;20401;-72
2022/06/26 08:07:42;;;;;;;9.43;5.10;;;;;;;16.78;100.00;101397.69;5051609;28;20029;-72
2022/06/26 08:10:08;;;;;;;8.55;5.10;;;;;;;16.80;100.00;101401.00;5034100;28;20034;-74
2022/06/26 08:12:33;;;;;;;7.78;4.82;;;;;;;16.78;100.00;101403.97;5033439;28;20040;-76
2022/06/26 08:18:20;;;;;;;;;;;;;;;16.99;100.00;101401.56;5032722;28;20122;-72
2022/06/26 08:20:46;;;;;;;8.83;5.10;;;;;;;16.92;100.00;101393.53;5049179;28;20356;-71
2022/06/26 08:23:12;;;;;;;10.00;5.15;;;;;;;16.95;100.00;101405.88;5034964;28;20033;-73
2022/06/26 08:25:38;;;;;;;7.45;4.72;;;;;;;16.91;100.00;101400.09;5034068;28;20500;-71
2022/06/26 08:28:03;;;;;;;9.20;5.07;;;;;;;16.88;100.00;101408.81;5034190;28;20030;-72
2022/06/26 08:30:28;;;;;;;6.82;4.88;;;;;;;16.86;100.00;101396.44;5033477;28;20491;-73
2022/06/26 08:32:57;;;;;;;9.38;4.95;;;;;;;16.86;100.00;101405.44;5033425;28;20033;-72
2022/06/26 08:35:22;;;;;;;6.93;4.55;;;;;;;16.86;100.00;101389.03;5031752;28;20396;-72
2022/06/26 08:37:48;;;;;;;7.20;4.72;;;;;;;16.89;100.00;101390.47;5043363;28;20041;-72
2022/06/26 08:40:13;;;;;;;9.80;5.07;;;;;;;16.89;100.00;101382.28;5033663;28;20033;-72
2022/06/26 08:42:41;;;;;;;8.30;4.90;;;;;;;16.90;100.00;101392.16;5033204;28;20056;-70
2022/06/26 08:45:32;;;;;;;6.97;4.57;;;;;;;17.02;100.00;101403.78;5034992;28;20029;-71
2022/06/26 08:48:01;;;;;;;6.53;4.32;;;;;;;17.03;100.00;101424.56;5043030;28;20380;-72
2022/06/26 08:50:49;;;;;;;7.63;4.63;;;;;;;17.12;100.00;101412.09;5038148;28;20031;-69
2022/06/26 08:53:16;;;;;;;6.90;4.47;;;;;;;17.08;100.00;101408.22;5036918;28;20523;-72
2022/06/26 08:55:43;;;;;;;8.90;4.68;;;;;;;17.10;100.00;101416.16;5046809;28;20040;-74
2022/06/26 08:58:09;;;;;;;6.50;4.10;;;;;;;17.13;99.97;101416.47;5052857;28;20475;-71
2022/06/26 09:00:35;;;;;;;10.13;4.20;;;;;;;17.10;92.97;101411.50;5040539;28;20033;-70
2022/06/26 09:32:13;;;;;;;7.32;3.50;;;;;;;17.32;95.79;101427.09;5685226;23;20987;-71
2022/06/26 09:34:53;;;;;;;5.57;3.60;;;;;;;17.36;96.73;101431.81;5633278;23;20070;-72
2022/06/26 09:37:22;;;;;;;5.95;3.40;;;;;;;17.40;98.87;101414.88;5309200;23;20055;-71
2022/06/26 09:55:18;;;;;;;5.68;3.35;;;;;;;17.51;92.47;101428.41;4957399;23;20061;-70
2022/06/26 09:57:45;;;;;;;9.15;3.60;;;;;;;17.58;100.00;101439.13;4955835;28;20027;-70
2022/06/26 10:00:11;;;;;;;7.22;2.60;;;;;;;17.60;93.09;101433.41;4958454;29;20078;-71
2022/06/26 10:08:09;;;;;;;5.70;3.15;;;;;;;17.75;94.42;101428.09;4939286;29;20144;-72
2022/06/26 10:10:35;;;;;;;7.95;3.25;;;;;;;17.77;91.94;101436.88;4937662;29;20064;-72
2022/06/26 10:13:05;;;;;;;7.18;3.20;;;;;;;17.85;100.00;101438.31;4939321;29;20036;-71
2022/06/26 10:15:56;;;;;;;4.18;3.00;;;;;;;17.87;99.34;101445.19;4938596;29;20455;-68
2022/06/26 10:18:57;;;;;;;9.40;3.03;;;;;;;17.95;95.73;101456.75;4898698;29;20153;-68
2022/06/26 10:21:22;;;;;;;7.20;3.33;;;;;;;17.97;87.64;101462.81;4919734;29;20488;-69
2022/06/26 10:23:48;;;;;;;6.57;3.03;;;;;;;18.02;91.28;101457.38;4919680;29;20072;-69
2022/06/26 10:26:15;;;;;;;9.13;3.00;;;;;;;18.05;86.09;101446.72;4919447;29;20087;-70
2022/06/26 10:29:00;;;;;;;7.45;3.30;;;;;;;18.18;92.95;101448.22;4919674;29;20113;-70
2022/06/26 10:31:30;;;;;;;6.55;2.90;;;;;;;18.27;87.30;101451.31;4902766;29;20052;-70
2022/06/26 10:33:55;;;;;;;8.02;3.10;;;;;;;18.32;89.51;101453.25;4915615;29;20028;-72
2022/06/26 10:36:22;;;;;;;9.60;3.13;;;;;;;18.35;91.90;101452.72;4883215;29;20419;-72
2022/06/26 10:38:48;;;;;;;3.78;3.00;;;;;;;18.38;85.48;101454.94;4892457;29;20036;-71
2022/06/26 10:44:14;;;;;;;7.10;3.47;;;;;;;18.41;83.12;101452.50;4900681;29;20060;-73
2022/06/26 10:46:46;;;;;;;6.82;3.40;;;;;;;18.56;87.06;101449.03;4900635;29;20052;-74
2022/06/26 10:49:12;;;;;;;8.05;3.70;;;;;;;18.70;86.85;101457.59;4899750;29;20072;-70
2022/06/26 11:01:39;;;;;;;6.33;3.00;;;;;;;19.06;85.26;101457.84;4897112;29;20085;-74
2022/06/26 11:04:04;;;;;;;8.57;2.38;;;;;;;19.11;78.27;101462.50;4900180;29;20040;-74
2022/06/26 11:06:30;;;;;;;6.07;2.67;;;;;;;19.04;76.12;101460.03;4899562;29;20028;-74
2022/06/26 11:08:56;;;;;;;6.53;2.38;;;;;;;19.10;76.99;101463.63;4898553;29;20112;-74
2022/06/26 11:11:31;;;;;;;5.15;2.60;;;;;;;19.05;76.18;101450.72;4899961;29;20111;-72
2022/06/26 11:13:58;;;;;;;5.25;2.60;;;;;;;19.07;74.83;101455.94;4882896;29;20029;-72
2022/06/26 11:16:32;;;;;;;5.22;2.35;;;;;;;19.04;74.05;101438.09;4882893;29;20037;-71
2022/06/26 11:18:58;;;;;;;5.97;2.63;;;;;;;19.06;76.23;101437.81;4898608;29;20477;-71
2022/06/26 11:21:24;;;;;;;6.35;2.97;;;;;;;19.11;79.78;101443.31;4883040;29;20357;-71
2022/06/26 11:23:51;;;;;;;8.27;2.85;;;;;;;19.17;76.69;101435.94;4899664;29;20031;-73
2022/06/26 11:26:21;;;;;;;6.05;2.60;;;;;;;19.28;75.82;101438.44;4899574;29;20043;-71
2022/06/26 11:29:00;;;;;;;6.45;2.30;;;;;;;19.27;75.16;101431.31;4892559;29;20029;-70
2022/06/26 11:31:29;;;;;;;5.53;2.45;;;;;;;19.26;74.22;101432.41;4881040;29;20041;-71
2022/06/26 11:33:55;;;;;;;8.77;2.50;;;;;;;19.26;73.93;101428.84;4879216;29;20072;-72
2022/06/26 11:36:24;;;;;;;10.48;2.60;;;;;;;19.27;74.57;101430.50;4880938;29;20044;-74
2022/06/26 11:38:54;;;;;;;9.25;3.10;;;;;;;19.21;70.72;101432.38;4892983;29;20089;-73
2022/06/26 11:41:22;;;;;;;6.10;2.70;;;;;;;19.18;70.23;101426.63;4898488;29;20112;-73
2022/06/26 11:43:54;;;;;;;6.50;2.25;;;;;;;19.15;71.56;101444.44;4899205;29;20021;-73
2022/06/26 11:46:20;;;;;;;7.95;2.67;;;;;;;19.14;72.01;101426.31;4868544;29;20033;-72
2022/06/26 11:48:48;;;;;;;5.80;2.38;;;;;;;19.15;70.36;101433.47;4898355;29;20044;-74
2022/06/26 11:51:14;;;;;;;7.07;2.35;;;;;;;19.09;71.33;101435.34;4897815;29;20044;-72
2022/06/26 11:53:44;;;;;;;6.80;2.30;;;;;;;19.10;73.05;101430.72;4899189;29;20029;-71
2022/06/26 11:56:11;;;;;;;6.38;2.65;;;;;;;19.11;74.04;101426.84;4899370;29;20037;-70
2022/06/26 11:58:36;;;;;;;7.18;2.47;;;;;;;19.16;75.20;101440.59;4899038;29;20049;-70
2022/06/26 12:01:08;;;;;;;6.05;2.25;;;;;;;19.16;71.41;101437.88;4895015;29;20051;-71
2022/06/26 12:03:35;;;;;;;8.27;2.40;;;;;;;19.15;71.65;101436.22;4898602;29;20115;-71
2022/06/26 12:06:01;;;;;;;7.53;2.85;;;;;;;19.20;72.35;101436.22;4898818;29;20043;-70
2022/06/26 12:08:29;;;;;;;3.70;2.25;;;;;;;19.28;73.99;101432.97;4899060;29;20032;-74
2022/06/26 12:10:54;;;;;;;7.00;2.50;;;;;;;19.31;70.34;101442.59;4878657;29;20035;-74
2022/06/26 12:13:26;;;;;;;9.50;2.55;;;;;;;19.26;70.73;101445.28;4898286;29;20036;-73
2022/06/26 12:15:52;;;;;;;7.03;2.40;;;;;;;19.25;69.82;101451.91;4898519;29;20037;-73
2022/06/26 12:18:18;;;;;;;9.20;2.70;;;;;;;19.19;68.65;101451.03;4899127;29;20039;-74
2022/06/26 12:20:50;;;;;;;8.65;2.50;;;;;;;19.19;70.28;101448.31;4897135;29;20036;-73
2022/06/26 12:23:15;;;;;;;;;;;;;;;19.29;72.59;101448.34;4898953;29;20036;-73
2022/06/26 12:25:44;;;;;;;8.70;2.47;;;;;;;19.21;73.31;101442.53;4880451;29;20002;-73
2022/06/26 12:28:20;;;;;;;7.15;2.40;;;;;;;19.23;74.58;101435.66;4898609;29;20032;-72